Time;durP1;ratioP1;P1;durP2;ratioP2;P2;SDS_P1;SDS_P2;PMS_P1;PMS_P2;Temp;Humidity;BMP_temperature;BMP_pressure;BME280_temperature;BME280_humidity;BME280_pressure;Samples;Min_cycle;Max_cycle;Signal;HPM_P1;HPM_P2
2022/03/29 00:00:40;;;;;;;33.70;18.10;;;5.80;99.90;;;;;;5077767;28;20060;-87
2022/03/29 00:03:07;;;;;;;34.60;17.10;;;5.80;99.90;;;;;;5077703;28;20028;-86
2022/03/29 00:05:34;;;;;;;38.05;16.27;;;5.80;99.90;;;;;;5077958;28;20024;-86
2022/03/29 00:08:01;;;;;;;34.70;17.27;;;5.80;99.90;;;;;;5094924;28;20028;-86
2022/03/29 00:10:27;;;;;;;35.55;18.45;;;5.80;99.90;;;;;;5078239;28;20032;-86
2022/03/29 00:12:55;;;;;;;32.60;17.35;;;5.90;99.90;;;;;;5095963;28;20032;-86
2022/03/29 00:15:23;;;;;;;33.15;16.67;;;5.80;99.90;;;;;;5077611;28;20039;-87
2022/03/29 00:17:49;;;;;;;32.53;16.42;;;5.80;99.90;;;;;;5077207;28;20459;-86
2022/03/29 00:20:19;;;;;;;34.70;17.23;;;5.80;99.90;;;;;;5094395;28;20431;-87
2022/03/29 00:22:49;;;;;;;37.92;17.25;;;5.80;99.90;;;;;;5077349;28;20028;-86
2022/03/29 00:25:15;;;;;;;36.65;16.50;;;5.80;99.90;;;;;;5077620;28;20028;-87
2022/03/29 00:27:42;;;;;;;35.97;17.13;;;5.80;99.90;;;;;;5077286;28;20531;-86
2022/03/29 00:30:11;;;;;;;41.67;17.70;;;5.80;99.90;;;;;;5112306;28;20034;-86
2022/03/29 00:32:40;;;;;;;36.80;16.95;;;5.90;99.90;;;;;;5077483;28;20342;-86
2022/03/29 00:35:07;;;;;;;32.80;16.88;;;6.00;99.90;;;;;;5077195;28;20391;-87
2022/03/29 00:37:34;;;;;;;32.65;16.20;;;6.00;99.90;;;;;;5094382;28;20063;-87
2022/03/29 00:40:00;;;;;;;38.30;16.70;;;6.00;99.90;;;;;;5077774;28;20043;-87
2022/03/29 00:42:26;;;;;;;34.20;15.15;;;6.00;99.90;;;;;;5077086;28;20111;-86
2022/03/29 00:44:52;;;;;;;30.95;14.95;;;6.00;99.90;;;;;;5077438;28;20066;-86
2022/03/29 00:47:18;;;;;;;31.50;15.93;;;6.00;99.90;;;;;;5076848;28;20032;-86
2022/03/29 00:49:43;;;;;;;31.25;15.77;;;6.00;99.90;;;;;;5076744;28;20043;-86
2022/03/29 00:52:10;;;;;;;29.65;15.60;;;6.00;99.90;;;;;;5110946;28;20426;-87
2022/03/29 00:54:39;;;;;;;30.73;15.80;;;6.10;99.90;;;;;;5077056;28;20032;-86
2022/03/29 00:57:05;;;;;;;31.30;15.32;;;6.00;99.90;;;;;;5076289;28;20060;-86
2022/03/29 00:59:31;;;;;;;33.50;15.60;;;6.00;99.90;;;;;;5076838;28;20514;-86
2022/03/29 01:01:57;;;;;;;35.42;16.30;;;5.90;99.90;;;;;;5076520;28;20128;-86
2022/03/29 01:04:25;;;;;;;30.27;15.23;;;5.90;99.90;;;;;;5076814;28;20522;-86
2022/03/29 01:06:58;;;;;;;31.20;15.45;;;5.80;99.90;;;;;;5110458;28;20035;-87
2022/03/29 01:09:34;;;;;;;28.80;16.30;;;5.90;99.90;;;;;;5077091;28;20024;-87
2022/03/29 01:11:59;;;;;;;30.55;15.98;;;5.80;99.90;;;;;;5077056;28;20131;-87
2022/03/29 01:14:26;;;;;;;31.83;16.45;;;5.80;99.90;;;;;;5093353;28;20091;-86
2022/03/29 01:19:55;;;;;;;37.95;16.17;;;5.70;99.90;;;;;;5110576;28;20047;-87
2022/03/29 01:22:22;;;;;;;33.30;16.35;;;5.70;99.90;;;;;;5076295;28;20028;-87
2022/03/29 01:24:49;;;;;;;40.95;16.30;;;5.60;99.90;;;;;;5077179;28;20077;-87
2022/03/29 01:27:15;;;;;;;38.13;17.20;;;5.60;99.90;;;;;;5076682;28;20028;-86
2022/03/29 01:29:43;;;;;;;39.20;18.70;;;5.60;99.90;;;;;;5076524;28;20039;-86
2022/03/29 01:32:10;;;;;;;41.70;17.48;;;5.60;99.90;;;;;;5076581;28;20032;-86
2022/03/29 01:34:39;;;;;;;33.00;16.65;;;5.60;99.90;;;;;;5093376;28;20583;-87
2022/03/29 01:37:05;;;;;;;37.30;18.40;;;5.70;99.90;;;;;;5075671;28;20665;-86
2022/03/29 01:39:35;;;;;;;32.17;16.05;;;5.70;99.90;;;;;;5093101;28;20444;-87
2022/03/29 01:42:03;;;;;;;30.42;15.35;;;5.70;99.90;;;;;;5093319;28;20036;-86
2022/03/29 01:44:29;;;;;;;33.03;16.38;;;5.80;99.90;;;;;;5076004;28;20032;-87
2022/03/29 01:46:55;;;;;;;33.75;16.15;;;5.70;99.90;;;;;;5076025;28;20536;-88
2022/03/29 01:49:21;;;;;;;33.30;16.20;;;5.80;99.90;;;;;;5093120;28;20092;-86
2022/03/29 01:51:47;;;;;;;35.30;17.00;;;5.80;99.90;;;;;;5076229;28;20364;-87
2022/03/29 01:54:13;;;;;;;34.08;16.08;;;5.80;99.90;;;;;;5076176;28;20044;-87
2022/03/29 01:56:38;;;;;;;34.38;17.38;;;5.80;99.90;;;;;;5075873;28;20032;-87
2022/03/29 01:59:06;;;;;;;32.72;16.40;;;5.80;99.90;;;;;;5093716;28;20031;-87
2022/03/29 02:01:43;;;;;;;31.33;15.20;;;5.70;99.90;;;;;;5075494;28;20590;-87
2022/03/29 02:04:09;;;;;;;32.13;16.73;;;5.70;99.90;;;;;;5093938;28;20020;-87
2022/03/29 02:06:35;;;;;;;37.53;18.05;;;5.70;99.90;;;;;;5109628;28;20028;-87
2022/03/29 02:09:02;;;;;;;38.10;16.90;;;5.80;99.90;;;;;;5075794;28;20035;-86
2022/03/29 02:11:28;;;;;;;37.60;17.63;;;5.70;99.90;;;;;;5092305;28;20674;-86
2022/03/29 02:13:54;;;;;;;39.47;18.17;;;5.60;99.90;;;;;;5075368;28;20027;-87
2022/03/29 02:16:21;;;;;;;38.75;18.13;;;5.60;99.90;;;;;;5075193;28;20043;-87
2022/03/29 02:18:47;;;;;;;39.80;17.63;;;5.60;99.90;;;;;;5075248;28;20138;-87
2022/03/29 02:21:17;;;;;;;35.83;16.45;;;5.70;99.90;;;;;;5075880;28;20056;-87
2022/03/29 02:23:43;;;;;;;40.13;17.05;;;5.90;99.90;;;;;;5075338;28;20101;-87
2022/03/29 02:26:09;;;;;;;40.42;17.65;;;6.00;99.90;;;;;;5075826;28;20035;-87
2022/03/29 02:28:34;;;;;;;36.08;17.95;;;6.10;99.90;;;;;;5091926;28;20150;-87
2022/03/29 02:31:00;;;;;;;41.13;16.17;;;6.40;99.90;;;;;;5075616;28;20123;-87
2022/03/29 02:33:26;;;;;;;38.63;18.50;;;6.60;99.90;;;;;;5075473;28;20040;-87
2022/03/29 02:35:52;;;;;;;39.13;17.70;;;6.80;99.90;;;;;;5093266;28;20461;-87
2022/03/29 02:38:20;;;;;;;35.28;17.00;;;6.90;99.90;;;;;;5074983;28;20123;-87
2022/03/29 02:40:46;;;;;;;38.38;17.50;;;7.00;99.90;;;;;;5058536;28;20106;-87
2022/03/29 02:43:12;;;;;;;41.00;15.80;;;7.10;99.90;;;;;;5075032;28;20550;-87
2022/03/29 02:45:38;;;;;;;33.08;16.98;;;7.10;99.90;;;;;;5092644;28;20107;-87
2022/03/29 02:48:05;;;;;;;44.40;18.00;;;7.10;99.90;;;;;;5074902;28;20123;-87
2022/03/29 02:50:30;;;;;;;35.70;15.63;;;7.10;99.90;;;;;;5074661;28;20034;-87
2022/03/29 02:53:01;;;;;;;32.10;15.90;;;7.20;99.90;;;;;;5074878;28;20115;-87
2022/03/29 02:55:30;;;;;;;37.90;18.55;;;7.20;99.90;;;;;;5074971;28;20489;-87
2022/03/29 02:57:56;;;;;;;40.83;18.88;;;7.20;99.90;;;;;;5092476;28;20027;-87
2022/03/29 03:00:23;;;;;;;33.92;17.23;;;7.00;99.90;;;;;;5074734;28;20035;-86
2022/03/29 03:02:54;;;;;;;48.53;18.83;;;6.90;99.90;;;;;;5093291;28;20146;-87
2022/03/29 03:05:20;;;;;;;41.08;17.25;;;6.90;99.90;;;;;;5074461;28;20838;-87
2022/03/29 03:07:47;;;;;;;38.40;18.27;;;6.80;99.90;;;;;;5091772;28;20128;-87
2022/03/29 03:10:13;;;;;;;44.15;18.65;;;6.80;99.90;;;;;;5075015;28;20042;-86
2022/03/29 03:12:43;;;;;;;40.53;17.35;;;6.60;99.90;;;;;;5075200;28;20039;-87
2022/03/29 03:15:11;;;;;;;39.35;18.63;;;6.60;99.90;;;;;;5074827;28;20028;-87
2022/03/29 03:17:37;;;;;;;41.55;18.80;;;6.50;99.90;;;;;;5074235;28;20093;-87
2022/03/29 03:20:04;;;;;;;38.08;17.48;;;6.40;99.90;;;;;;5074761;28;20031;-86
2022/03/29 03:22:30;;;;;;;36.55;17.33;;;6.40;99.90;;;;;;5074630;28;20020;-87
2022/03/29 03:24:56;;;;;;;44.53;18.65;;;6.30;99.90;;;;;;5091719;28;20025;-87
2022/03/29 03:27:21;;;;;;;38.80;18.45;;;6.30;99.90;;;;;;5074420;28;20036;-87
2022/03/29 03:29:47;;;;;;;37.80;18.20;;;6.40;99.90;;;;;;5074864;28;20475;-87
2022/03/29 03:32:14;;;;;;;48.65;18.75;;;6.30;99.90;;;;;;5108417;28;20047;-87
2022/03/29 03:34:40;;;;;;;38.47;17.40;;;6.20;99.90;;;;;;5092484;28;20040;-87
2022/03/29 03:37:07;;;;;;;33.08;18.17;;;6.10;99.90;;;;;;5074276;28;20078;-87
2022/03/29 03:39:34;;;;;;;38.60;17.80;;;6.00;99.90;;;;;;5108419;28;20039;-87
2022/03/29 03:42:01;;;;;;;44.53;19.52;;;6.00;99.90;;;;;;5075212;28;20029;-87
2022/03/29 03:44:27;;;;;;;35.50;18.15;;;5.90;99.90;;;;;;5074903;28;20494;-87
2022/03/29 03:46:53;;;;;;;42.72;19.40;;;5.90;99.90;;;;;;5074668;28;20055;-87
2022/03/29 03:49:19;;;;;;;51.25;20.83;;;5.80;99.90;;;;;;5108567;28;20054;-87
2022/03/29 03:51:45;;;;;;;44.17;19.60;;;5.80;99.90;;;;;;5091312;28;20111;-86
2022/03/29 03:54:10;;;;;;;50.22;21.15;;;6.00;99.90;;;;;;5074859;28;20135;-87
2022/03/29 03:56:36;;;;;;;44.53;19.77;;;6.10;99.90;;;;;;5074787;28;20468;-87
2022/03/29 03:59:03;;;;;;;49.45;20.48;;;6.30;99.90;;;;;;5074468;28;20032;-87
2022/03/29 04:01:28;;;;;;;39.75;19.30;;;6.50;99.90;;;;;;5091814;28;20368;-87
2022/03/29 04:03:54;;;;;;;39.58;17.90;;;6.60;99.90;;;;;;5074454;28;20039;-87
2022/03/29 04:06:20;;;;;;;39.15;17.92;;;6.80;99.90;;;;;;5074670;28;20047;-87
2022/03/29 04:08:45;;;;;;;48.60;18.55;;;6.90;99.90;;;;;;5074344;28;20035;-87
2022/03/29 04:11:11;;;;;;;48.67;21.17;;;7.00;99.90;;;;;;5074024;28;20028;-87
2022/03/29 04:13:37;;;;;;;52.28;20.60;;;7.00;99.90;;;;;;5074137;28;20036;-88
2022/03/29 04:16:03;;;;;;;54.22;21.52;;;7.00;99.90;;;;;;5108272;28;20028;-88
2022/03/29 04:18:29;;;;;;;46.58;19.08;;;7.20;99.90;;;;;;5076003;28;20034;-87
2022/03/29 04:20:57;;;;;;;49.97;22.05;;;7.30;99.90;;;;;;5078384;28;20024;-87
2022/03/29 04:23:22;;;;;;;50.72;22.33;;;7.30;99.90;;;;;;5111399;28;20081;-87
2022/03/29 04:25:48;;;;;;;48.55;21.08;;;7.40;99.90;;;;;;5111870;28;20024;-86
2022/03/29 04:28:14;;;;;;;48.40;21.50;;;7.30;99.90;;;;;;5077913;28;20028;-87
2022/03/29 04:30:40;;;;;;;51.40;19.60;;;7.30;99.90;;;;;;5077942;28;20039;-87
2022/03/29 04:33:06;;;;;;;46.78;21.25;;;7.20;99.90;;;;;;5078386;28;20035;-87
2022/03/29 04:35:32;;;;;;;44.78;21.13;;;7.30;99.90;;;;;;5078088;28;20035;-88
2022/03/29 04:37:58;;;;;;;48.75;22.67;;;7.20;99.90;;;;;;5077752;28;20025;-88
2022/03/29 04:40:23;;;;;;;48.92;23.23;;;7.10;99.90;;;;;;5077606;28;20039;-87
2022/03/29 04:42:51;;;;;;;50.25;22.60;;;7.10;99.90;;;;;;5077711;28;20028;-88
2022/03/29 04:45:18;;;;;;;44.33;21.40;;;7.00;99.90;;;;;;5077805;28;20028;-88
2022/03/29 04:47:46;;;;;;;44.05;20.80;;;7.00;99.90;;;;;;5077638;28;20031;-88
2022/03/29 04:50:14;;;;;;;56.58;23.33;;;7.00;99.90;;;;;;5094809;28;20032;-88
2022/03/29 04:52:49;;;;;;;44.50;21.60;;;6.90;99.90;;;;;;5094141;28;20039;-87
2022/03/29 04:55:16;;;;;;;48.25;21.48;;;6.90;99.90;;;;;;5077394;28;20036;-87
2022/03/29 04:57:43;;;;;;;50.75;22.50;;;6.90;99.90;;;;;;5077606;28;20036;-88
2022/03/29 05:00:12;;;;;;;51.85;22.67;;;6.90;99.90;;;;;;5077988;28;20032;-88
2022/03/29 05:02:38;;;;;;;52.40;23.65;;;6.90;99.90;;;;;;5077861;28;20115;-88
2022/03/29 05:05:05;;;;;;;48.47;22.33;;;6.80;99.90;;;;;;5077570;28;20028;-88
2022/03/29 05:07:31;;;;;;;52.38;24.58;;;6.80;99.90;;;;;;5076950;28;20025;-88
2022/03/29 05:09:56;;;;;;;51.97;21.98;;;6.70;99.90;;;;;;5077131;28;20062;-85
2022/03/29 05:12:22;;;;;;;58.40;24.15;;;6.60;99.90;;;;;;5076260;28;20024;-84
2022/03/29 05:14:50;;;;;;;53.45;23.20;;;6.60;99.90;;;;;;5076548;28;20028;-84
2022/03/29 05:17:15;;;;;;;53.08;22.63;;;6.50;99.90;;;;;;5076469;28;20039;-84
2022/03/29 05:19:41;;;;;;;52.22;23.38;;;6.50;99.90;;;;;;5076428;28;20104;-84
2022/03/29 05:22:07;;;;;;;51.78;23.00;;;6.50;99.90;;;;;;5110197;28;20703;-84
2022/03/29 05:24:33;;;;;;;53.03;25.00;;;6.50;99.90;;;;;;5076773;28;20105;-84
2022/03/29 05:26:58;;;;;;;56.03;23.67;;;6.60;99.90;;;;;;5076900;28;20467;-84
2022/03/29 05:29:25;;;;;;;54.05;23.00;;;6.50;99.90;;;;;;5076232;28;20059;-84
2022/03/29 05:31:51;;;;;;;52.35;23.45;;;6.50;99.90;;;;;;5076188;28;20034;-84
2022/03/29 05:34:17;;;;;;;57.15;23.40;;;6.50;99.90;;;;;;5076302;28;20042;-84
2022/03/29 05:36:45;;;;;;;52.55;23.50;;;6.50;99.90;;;;;;5076117;28;20032;-84
2022/03/29 05:39:14;;;;;;;51.22;24.02;;;6.50;99.90;;;;;;5109650;28;20042;-84
2022/03/29 05:41:40;;;;;;;53.97;22.40;;;6.60;99.90;;;;;;5092696;28;20511;-84
2022/03/29 05:44:06;;;;;;;50.58;24.20;;;6.70;99.90;;;;;;5075613;28;20040;-84
2022/03/29 05:49:16;;;;;;;48.35;23.00;;;6.80;99.90;;;;;;5075837;28;20032;-84
2022/03/29 05:51:42;;;;;;;50.38;21.80;;;6.90;99.90;;;;;;5076010;28;20040;-84
2022/03/29 05:54:08;;;;;;;48.15;21.85;;;6.90;99.90;;;;;;5075906;28;20833;-84
2022/03/29 05:56:33;;;;;;;52.67;21.95;;;6.90;99.90;;;;;;5074728;28;20032;-84
2022/03/29 05:59:00;;;;;;;51.92;22.08;;;7.00;99.90;;;;;;5074873;28;20119;-84
2022/03/29 06:01:25;;;;;;;49.13;21.73;;;7.10;99.90;;;;;;5074976;28;20633;-84
2022/03/29 06:03:51;;;;;;;52.05;22.17;;;7.20;99.90;;;;;;5075010;28;20027;-84
2022/03/29 06:06:17;;;;;;;49.95;22.55;;;7.30;99.90;;;;;;5074516;28;20031;-84
2022/03/29 06:08:43;;;;;;;47.60;21.88;;;7.40;99.90;;;;;;5074079;28;20027;-85
2022/03/29 06:11:08;;;;;;;46.33;20.90;;;7.50;99.90;;;;;;5108356;28;20024;-84
2022/03/29 06:13:34;;;;;;;48.08;22.02;;;7.50;99.90;;;;;;5075143;28;20107;-84
2022/03/29 06:16:00;;;;;;;50.67;22.90;;;7.60;99.90;;;;;;5075019;28;20032;-84
2022/03/29 06:18:26;;;;;;;45.38;22.25;;;7.80;99.90;;;;;;5108421;28;20031;-84
2022/03/29 06:20:52;;;;;;;45.17;22.08;;;7.90;99.90;;;;;;5074835;28;20058;-84
2022/03/29 06:23:19;;;;;;;47.55;23.27;;;8.00;99.90;;;;;;5074644;28;20031;-84
2022/03/29 06:25:46;;;;;;;61.60;24.10;;;8.20;99.90;;;;;;5075206;28;20031;-84
2022/03/29 06:28:12;;;;;;;48.67;22.05;;;8.40;99.90;;;;;;5074605;28;20032;-84
2022/03/29 06:30:38;;;;;;;55.63;24.20;;;8.60;99.90;;;;;;5074938;28;20024;-84
2022/03/29 06:33:04;;;;;;;56.53;26.85;;;8.80;99.90;;;;;;5074698;28;20803;-84
2022/03/29 06:35:31;;;;;;;52.92;25.10;;;9.00;99.90;;;;;;5108322;28;20038;-84
2022/03/29 06:37:58;;;;;;;54.72;23.05;;;9.20;99.90;;;;;;5074091;28;20042;-84
2022/03/29 06:40:26;;;;;;;46.42;22.55;;;9.40;99.90;;;;;;5107777;28;20499;-83
2022/03/29 06:42:53;;;;;;;43.85;21.95;;;9.70;99.90;;;;;;5058281;28;20032;-83
2022/03/29 06:45:19;;;;;;;50.90;23.00;;;9.90;99.90;;;;;;5092346;28;20098;-84
2022/03/29 06:47:45;;;;;;;55.53;24.60;;;10.10;99.90;;;;;;5074175;28;20032;-85
2022/03/29 06:50:11;;;;;;;48.60;22.95;;;10.30;99.90;;;;;;5093312;28;20089;-84
2022/03/29 06:52:42;;;;;;;46.90;22.48;;;10.50;99.90;;;;;;5107218;28;20028;-84
2022/03/29 06:55:10;;;;;;;49.70;20.63;;;10.70;99.90;;;;;;5073601;28;20036;-85
2022/03/29 06:57:36;;;;;;;47.05;21.75;;;10.80;99.90;;;;;;5092061;28;20761;-84
2022/03/29 07:00:05;;;;;;;47.88;21.92;;;10.90;99.90;;;;;;5074700;28;20044;-84
2022/03/29 07:02:31;;;;;;;46.25;22.20;;;11.00;99.90;;;;;;5073220;28;20089;-84
2022/03/29 07:05:04;;;;;;;44.22;22.33;;;11.10;99.90;;;;;;5073965;28;20028;-84
2022/03/29 07:07:30;;;;;;;56.42;24.13;;;11.20;99.90;;;;;;5108222;28;20550;-84
2022/03/29 07:12:52;;;;;;;47.67;21.95;;;11.50;99.90;;;;;;5108249;28;20036;-84
2022/03/29 07:15:19;;;;;;;57.22;24.17;;;11.60;99.90;;;;;;5057341;28;20036;-84
2022/03/29 07:17:45;;;;;;;44.97;21.42;;;11.60;99.90;;;;;;5074120;28;20040;-85
2022/03/29 07:20:13;;;;;;;44.65;21.48;;;11.80;99.90;;;;;;5074442;28;20032;-84
2022/03/29 07:22:38;;;;;;;52.50;22.20;;;11.90;99.90;;;;;;5074404;28;20772;-84
2022/03/29 07:25:05;;;;;;;52.92;23.67;;;12.10;99.90;;;;;;5074247;28;20056;-84
2022/03/29 07:27:31;;;;;;;43.80;22.10;;;12.20;99.90;;;;;;5073488;28;20491;-85
2022/03/29 07:29:57;;;;;;;43.55;22.30;;;12.40;99.90;;;;;;5074037;28;20038;-84
2022/03/29 07:32:23;;;;;;;48.42;21.85;;;12.60;99.90;;;;;;5074029;28;20131;-85
2022/03/29 07:34:49;;;;;;;49.05;23.60;;;12.70;99.90;;;;;;5074219;28;20106;-84
2022/03/29 07:37:14;;;;;;;47.20;23.92;;;12.80;99.90;;;;;;5074170;28;20024;-84
2022/03/29 07:39:41;;;;;;;56.83;23.75;;;13.00;99.90;;;;;;5074389;28;20131;-84
2022/03/29 07:42:07;;;;;;;46.05;23.55;;;13.10;99.90;;;;;;5107732;28;20036;-85
2022/03/29 07:44:33;;;;;;;41.92;20.75;;;13.10;99.90;;;;;;5073956;28;20032;-85
2022/03/29 07:47:00;;;;;;;45.97;20.63;;;13.30;99.90;;;;;;5090966;28;20099;-85
2022/03/29 07:49:29;;;;;;;47.15;20.38;;;13.30;99.90;;;;;;5074595;28;20040;-84
2022/03/29 07:51:55;;;;;;;45.90;19.83;;;13.30;99.90;;;;;;5075096;28;20474;-84
2022/03/29 07:54:21;;;;;;;35.45;18.73;;;13.30;99.90;;;;;;5078710;28;20028;-85
2022/03/29 07:56:47;;;;;;;44.58;19.60;;;13.40;99.90;;;;;;5077625;28;20082;-84
2022/03/29 07:59:13;;;;;;;38.72;20.85;;;13.30;99.90;;;;;;5077852;28;20482;-84
2022/03/29 08:01:39;;;;;;;49.42;20.83;;;13.20;99.90;;;;;;5077849;28;20031;-84
2022/03/29 08:04:04;;;;;;;43.63;19.95;;;13.40;99.90;;;;;;5077651;28;20028;-84
2022/03/29 08:06:30;;;;;;;36.55;18.58;;;13.40;99.90;;;;;;5077749;28;20032;-84
2022/03/29 08:08:56;;;;;;;43.55;20.13;;;13.60;99.90;;;;;;5077015;28;20094;-84
2022/03/29 08:11:22;;;;;;;65.00;21.48;;;13.70;99.90;;;;;;5077275;28;20380;-85
2022/03/29 08:13:49;;;;;;;44.78;20.13;;;14.00;99.90;;;;;;5095246;28;20053;-84
2022/03/29 08:16:16;;;;;;;37.38;19.48;;;14.20;99.90;;;;;;5077172;28;20032;-84
2022/03/29 08:18:45;;;;;;;42.85;20.27;;;14.30;99.90;;;;;;5093635;28;20028;-85
2022/03/29 08:23:56;;;;;;;40.17;19.60;;;14.50;99.90;;;;;;5076801;28;20395;-85
2022/03/29 08:26:22;;;;;;;37.30;18.65;;;14.40;99.90;;;;;;5110857;28;20122;-84
2022/03/29 08:28:48;;;;;;;43.17;20.08;;;14.20;99.90;;;;;;5094816;28;20028;-85
2022/03/29 08:31:13;;;;;;;43.90;20.40;;;14.20;99.90;;;;;;5076830;28;20070;-85
2022/03/29 08:33:39;;;;;;;45.38;19.35;;;14.40;99.90;;;;;;5077167;28;20117;-85
2022/03/29 08:36:05;;;;;;;46.60;21.15;;;14.60;99.90;;;;;;5110760;28;20024;-85
2022/03/29 08:38:31;;;;;;;41.35;19.90;;;14.60;99.90;;;;;;5077024;28;20066;-85
2022/03/29 08:40:58;;;;;;;42.00;21.17;;;14.60;99.90;;;;;;5076989;28;20085;-84
2022/03/29 08:43:29;;;;;;;48.60;20.88;;;14.70;99.90;;;;;;5076859;28;20031;-85
2022/03/29 08:45:55;;;;;;;48.50;23.20;;;14.80;99.90;;;;;;5095216;28;20113;-83
2022/03/29 08:48:26;;;;;;;42.85;22.38;;;14.90;99.90;;;;;;5075555;28;20445;-85
2022/03/29 08:50:53;;;;;;;50.03;22.63;;;15.10;99.90;;;;;;5094136;28;20067;-85
2022/03/29 08:53:22;;;;;;;44.72;22.25;;;15.70;99.90;;;;;;5076828;28;20032;-85
2022/03/29 08:55:49;;;;;;;44.22;21.63;;;16.50;99.90;;;;;;5076963;28;20044;-85
2022/03/29 08:58:18;;;;;;;45.05;25.00;;;16.90;99.90;;;;;;5076371;28;20089;-84
2022/03/29 09:00:46;;;;;;;44.25;23.63;;;17.50;99.90;;;;;;5094941;28;20684;-85
2022/03/29 09:03:14;;;;;;;78.90;23.63;;;18.40;99.30;;;;;;5076195;28;20568;-85
2022/03/29 09:05:39;;;;;;;53.83;21.60;;;19.10;96.30;;;;;;5076445;28;20032;-85
2022/03/29 09:08:08;;;;;;;38.58;21.55;;;20.30;93.30;;;;;;5094564;28;20042;-85
2022/03/29 09:10:44;;;;;;;36.75;19.77;;;20.30;91.40;;;;;;5076665;28;20031;-85
2022/03/29 09:13:23;;;;;;;38.88;21.30;;;20.20;90.60;;;;;;5093787;28;20764;-85
2022/03/29 09:15:51;;;;;;;37.67;20.73;;;20.60;88.80;;;;;;5077051;28;20031;-85
2022/03/29 09:18:18;;;;;;;50.15;23.08;;;20.60;85.20;;;;;;5076166;28;20031;-85
2022/03/29 09:20:45;;;;;;;37.00;20.63;;;20.00;85.10;;;;;;5093360;28;20067;-85
2022/03/29 09:23:17;;;;;;;39.75;19.00;;;20.40;85.80;;;;;;5109908;28;20024;-85
2022/03/29 09:25:48;;;;;;;38.60;19.55;;;20.00;84.60;;;;;;5092514;28;20032;-87
2022/03/29 09:28:17;;;;;;;42.42;21.83;;;19.60;86.60;;;;;;5095078;28;20068;-88
2022/03/29 09:30:51;;;;;;;43.10;22.50;;;18.90;88.50;;;;;;5060202;28;20032;-89
2022/03/29 09:33:19;;;;;;;46.22;18.75;;;18.50;88.60;;;;;;5095303;28;20040;-89
2022/03/29 09:35:57;;;;;;;36.60;19.92;;;18.70;90.40;;;;;;5095033;28;20032;-90
2022/03/29 09:38:27;;;;;;;36.58;20.73;;;18.40;89.80;;;;;;5077107;28;20032;-90
2022/03/29 09:40:54;;;;;;;31.92;18.55;;;17.80;91.10;;;;;;5077707;28;20039;-89
2022/03/29 09:44:10;;;;;;;37.95;19.92;;;18.10;91.90;;;;;;5079936;28;20039;-86
2022/03/29 09:47:00;;;;;;;33.85;19.85;;;18.40;91.10;;;;;;5080411;28;20125;-89
2022/03/29 09:49:27;;;;;;;34.00;20.25;;;18.10;90.70;;;;;;5110167;28;20036;-88
2022/03/29 09:52:16;;;;;;;32.28;19.58;;;18.50;91.30;;;;;;5076545;28;20100;-89
2022/03/29 09:55:06;;;;;;;34.95;20.15;;;18.80;90.10;;;;;;5094663;28;20039;-89
2022/03/29 09:57:41;;;;;;;38.13;19.77;;;19.20;89.90;;;;;;5075674;28;20453;-89
2022/03/29 10:00:12;;;;;;;42.83;20.63;;;19.10;88.80;;;;;;5093121;28;20540;-89
2022/03/29 10:02:45;;;;;;;34.67;20.52;;;19.40;88.60;;;;;;5093136;28;20017;-89
2022/03/29 10:05:11;;;;;;;40.47;21.23;;;19.60;86.20;;;;;;5075832;28;20031;-89
2022/03/29 10:11:00;;;;;;;44.28;23.40;;;19.70;82.80;;;;;;5049087;28;20090;-89
2022/03/29 10:13:28;;;;;;;48.15;25.48;;;19.10;83.10;;;;;;5075990;28;20078;-89
2022/03/29 10:15:54;;;;;;;42.50;24.90;;;19.60;82.20;;;;;;5108628;28;20032;-89
2022/03/29 10:18:24;;;;;;;41.80;23.00;;;20.10;80.50;;;;;;5075973;28;20048;-89
2022/03/29 10:20:49;;;;;;;39.97;23.35;;;20.60;78.10;;;;;;5094156;28;20032;-88
2022/03/29 10:23:18;;;;;;;41.50;24.77;;;20.20;77.50;;;;;;5075505;28;20364;-89
2022/03/29 10:25:45;;;;;;;40.70;23.02;;;19.70;77.70;;;;;;5075909;28;20028;-89
2022/03/29 10:28:11;;;;;;;45.25;23.48;;;19.40;81.20;;;;;;5075633;28;20071;-88
2022/03/29 10:30:39;;;;;;;41.50;22.27;;;19.40;81.10;;;;;;5093831;28;20513;-89
2022/03/29 10:33:26;;;;;;;48.75;23.88;;;20.00;80.50;;;;;;5075882;28;20040;-89
2022/03/29 10:36:03;;;;;;;37.55;21.48;;;20.70;78.80;;;;;;5093663;28;20028;-89
2022/03/29 10:38:46;;;;;;;39.72;24.02;;;21.10;76.60;;;;;;5075052;28;20062;-88
2022/03/29 10:41:31;;;;;;;46.33;25.95;;;20.90;73.80;;;;;;5074744;28;20032;-89
2022/03/29 10:44:14;;;;;;;46.05;25.67;;;20.50;74.40;;;;;;5075329;28;20044;-89
2022/03/29 10:46:45;;;;;;;44.08;25.20;;;20.60;74.40;;;;;;5074661;28;20035;-89
2022/03/29 10:49:20;;;;;;;39.25;24.25;;;19.60;75.00;;;;;;5075081;28;20078;-89
2022/03/29 10:51:52;;;;;;;44.25;26.05;;;19.30;76.30;;;;;;5058832;28;20047;-89
2022/03/29 10:54:26;;;;;;;;;;;19.00;75.10;;;;;;5092877;28;20063;-89
2022/03/29 10:57:03;;;;;;;44.30;25.67;;;18.70;77.60;;;;;;5092173;28;20394;-89
2022/03/29 10:59:31;;;;;;;50.72;26.42;;;18.90;76.50;;;;;;5075301;28;20410;-89
2022/03/29 11:02:20;;;;;;;53.95;33.03;;;19.10;75.20;;;;;;5075094;28;20032;-89
2022/03/29 11:05:09;;;;;;;51.13;25.73;;;19.10;74.00;;;;;;5075388;28;20066;-89
2022/03/29 11:07:39;;;;;;;46.50;25.83;;;19.50;77.20;;;;;;5075129;28;20030;-90
2022/03/29 11:10:09;;;;;;;47.53;25.73;;;19.50;76.10;;;;;;5075355;28;20089;-89
2022/03/29 11:12:43;;;;;;;48.45;25.60;;;19.90;73.90;;;;;;5075401;28;20274;-89
2022/03/29 11:15:41;;;;;;;46.58;25.77;;;19.50;71.50;;;;;;5108705;28;20028;-89
2022/03/29 11:18:32;;;;;;;47.00;25.60;;;20.00;72.00;;;;;;5063213;28;20044;-89
2022/03/29 11:21:02;;;;;;;46.95;26.17;;;20.20;71.20;;;;;;5074454;28;20457;-89
2022/03/29 11:23:44;;;;;;;40.42;24.95;;;20.10;71.10;;;;;;5093000;28;20039;-89
2022/03/29 11:26:15;;;;;;;46.28;24.45;;;19.80;69.60;;;;;;5092740;28;20090;-89
2022/03/29 11:29:07;;;;;;;41.45;23.27;;;20.10;71.30;;;;;;5078550;28;20822;-89
2022/03/29 11:31:38;;;;;;;48.33;24.65;;;20.10;71.00;;;;;;5076283;28;20071;-89
2022/03/29 11:34:06;;;;;;;44.83;25.80;;;19.90;71.00;;;;;;5113409;28;20042;-89
2022/03/29 11:36:36;;;;;;;44.72;23.27;;;19.90;70.20;;;;;;5097262;28;20024;-89
2022/03/29 11:39:05;;;;;;;50.05;24.40;;;20.20;69.30;;;;;;5078825;28;20495;-89
2022/03/29 11:41:33;;;;;;;45.97;23.98;;;20.30;65.60;;;;;;5078793;28;20082;-89
2022/03/29 11:44:02;;;;;;;58.72;27.15;;;20.30;67.40;;;;;;5078785;28;20028;-89
2022/03/29 11:46:57;;;;;;;46.33;22.45;;;20.40;65.00;;;;;;5080270;28;20028;-89
2022/03/29 11:49:27;;;;;;;49.30;25.13;;;20.40;66.50;;;;;;5112171;28;20032;-87
2022/03/29 11:52:11;;;;;;;48.28;23.90;;;20.70;67.30;;;;;;5078333;28;20395;-89
2022/03/29 11:54:40;;;;;;;46.67;24.48;;;20.50;64.00;;;;;;5078626;28;20123;-89
2022/03/29 11:57:30;;;;;;;41.97;24.10;;;20.80;65.60;;;;;;5096371;28;20067;-89
2022/03/29 11:59:57;;;;;;;43.60;24.85;;;20.40;63.60;;;;;;5078027;28;20036;-89
2022/03/29 12:02:27;;;;;;;42.13;25.02;;;19.80;66.50;;;;;;5095469;28;20035;-89
2022/03/29 12:04:54;;;;;;;54.25;23.60;;;19.20;67.10;;;;;;5095618;28;20031;-89
2022/03/29 12:07:38;;;;;;;191.55;87.65;;;19.10;68.00;;;;;;5078407;28;20030;-89
2022/03/29 12:10:05;;;;;;;49.58;23.65;;;18.90;65.50;;;;;;5078669;28;20032;-88
2022/03/29 12:12:30;;;;;;;47.45;22.55;;;19.00;64.90;;;;;;5095181;28;20043;-89
2022/03/29 12:15:07;;;;;;;47.78;24.60;;;19.20;64.10;;;;;;5078224;28;20475;-89
2022/03/29 12:17:36;;;;;;;45.00;24.30;;;19.00;65.30;;;;;;5094958;28;20483;-89
2022/03/29 12:20:02;;;;;;;43.42;23.33;;;19.00;65.80;;;;;;5094711;28;20032;-89
2022/03/29 12:22:29;;;;;;;41.22;21.20;;;19.10;66.00;;;;;;5077643;28;20024;-89
2022/03/29 12:24:57;;;;;;;48.63;22.05;;;19.40;65.80;;;;;;5077751;28;20396;-89
2022/03/29 12:27:23;;;;;;;52.15;23.02;;;19.10;64.00;;;;;;5077376;28;20055;-89
2022/03/29 12:29:58;;;;;;;45.88;22.00;;;19.30;65.10;;;;;;5077957;28;20391;-90
2022/03/29 12:32:24;;;;;;;47.22;24.58;;;19.50;65.20;;;;;;5078205;28;20443;-89
2022/03/29 12:34:59;;;;;;;52.13;24.35;;;19.50;65.70;;;;;;5077779;28;20040;-89
2022/03/29 12:37:27;;;;;;;54.95;24.45;;;19.10;65.70;;;;;;5077532;28;20131;-89
2022/03/29 12:39:59;;;;;;;47.90;22.92;;;19.10;65.40;;;;;;5093389;28;20036;-88
2022/03/29 12:42:33;;;;;;;43.08;23.42;;;19.00;65.20;;;;;;5077694;28;20035;-89
2022/03/29 12:45:00;;;;;;;48.70;23.58;;;18.90;65.90;;;;;;5111978;28;20024;-89
2022/03/29 12:47:28;;;;;;;49.35;23.35;;;18.60;66.00;;;;;;5077687;28;20038;-90
2022/03/29 12:49:54;;;;;;;47.72;22.27;;;18.50;64.80;;;;;;5078210;28;20028;-89
2022/03/29 12:52:20;;;;;;;76.88;22.77;;;18.50;66.20;;;;;;5078186;28;20024;-89
2022/03/29 12:54:52;;;;;;;44.33;22.67;;;18.40;64.30;;;;;;5078109;28;20064;-88